createdAt,value
2019-05-06T05:33:57.623Z,96.90
2019-05-06T05:34:39.859Z,97.10
2019-05-06T05:35:09.477Z,97.10
2019-05-06T05:35:44.516Z,97.20
2019-05-06T05:36:20.095Z,97.20
2019-05-06T05:36:55.143Z,97.50
2019-05-06T05:37:32.701Z,97.50
2019-05-06T05:38:07.495Z,97.60
2019-05-06T05:38:43.487Z,97.50
2019-05-06T05:39:18.861Z,97.50
2019-05-06T05:39:54.009Z,97.50
2019-05-06T05:40:29.357Z,97.60
2019-05-06T05:41:04.487Z,97.50
2019-05-06T05:41:42.757Z,97.50
2019-05-06T05:42:29.222Z,97.50
2019-05-06T05:43:18.362Z,97.40
2019-05-06T05:44:12.506Z,97.50
2019-05-06T05:44:48.381Z,97.50
2019-05-06T05:45:23.451Z,97.50
2019-05-06T05:45:58.791Z,97.50
2019-05-06T05:46:33.870Z,97.50
2019-05-06T05:47:09.404Z,97.40
2019-05-06T05:47:44.770Z,97.40
2019-05-06T05:48:42.342Z,97.40
2019-05-06T05:49:27.752Z,97.40
2019-05-06T05:50:15.175Z,97.30
2019-05-06T05:50:52.513Z,97.30
2019-05-06T05:51:26.974Z,97.40
2019-05-06T05:52:03.370Z,97.30
2019-05-06T05:52:38.862Z,97.40
2019-05-06T05:53:13.914Z,97.40
2019-05-06T05:53:49.043Z,97.50
2019-05-06T05:54:24.378Z,97.50
2019-05-06T05:54:59.428Z,97.50
2019-05-06T05:55:34.480Z,97.40
2019-05-06T05:56:09.528Z,97.40
2019-05-06T05:56:45.216Z,97.40
2019-05-06T05:57:20.265Z,97.30
2019-05-06T05:57:55.300Z,97.20
2019-05-06T05:58:32.886Z,97.30
2019-05-06T05:59:07.088Z,97.20
2019-05-06T05:59:42.441Z,97.20
2019-05-06T06:00:17.967Z,97.00
2019-05-06T06:00:53.006Z,96.90
2019-05-06T06:01:28.329Z,96.90
2019-05-06T06:02:03.980Z,96.90
2019-05-06T06:02:39.178Z,96.80
2019-05-06T06:03:14.219Z,96.80
2019-05-06T06:03:49.594Z,96.70
2019-05-06T06:04:24.979Z,96.60
2019-05-06T06:05:02.330Z,96.70
2019-05-06T06:05:37.059Z,96.70
2019-05-06T06:06:12.648Z,96.60
2019-05-06T06:06:48.211Z,96.60
2019-05-06T06:07:23.256Z,96.60
2019-05-06T06:07:58.306Z,96.60
2019-05-06T06:08:36.464Z,96.50
2019-05-06T06:09:12.583Z,96.50
2019-05-06T06:09:54.671Z,96.40
2019-05-06T06:10:47.347Z,96.40
2019-05-06T06:11:26.729Z,96.20
2019-05-06T06:12:04.595Z,96.20
2019-05-06T06:12:39.803Z,96.10
2019-05-06T06:13:15.114Z,96.00
2019-05-06T06:13:52.166Z,95.90
2019-05-06T06:14:55.730Z,95.90
2019-05-06T06:15:53.699Z,95.80
2019-05-06T06:16:39.184Z,95.70
2019-05-06T06:17:32.620Z,95.60
2019-05-06T06:18:25.027Z,95.60
2019-05-06T06:19:12.559Z,95.60
2019-05-06T06:19:53.423Z,95.40
2019-05-06T06:20:47.803Z,95.40
2019-05-06T06:21:42.658Z,95.40
2019-05-06T06:22:19.989Z,95.30
2019-05-06T06:22:56.538Z,95.30
2019-05-06T06:23:36.815Z,95.20
2019-05-06T06:24:19.135Z,95.20
2019-05-06T06:24:54.429Z,95.10
2019-05-06T06:25:29.550Z,95.10
2019-05-06T06:26:04.675Z,95.10
2019-05-06T06:26:39.727Z,95.10
2019-05-06T06:27:14.766Z,95.10
2019-05-06T06:27:52.124Z,95.10
2019-05-06T06:28:27.202Z,95.00
2019-05-06T06:29:03.234Z,95.00
2019-05-06T06:29:38.775Z,95.00
2019-05-06T06:30:13.828Z,94.90
2019-05-06T06:30:58.370Z,94.90
2019-05-06T06:31:38.674Z,94.80
2019-05-06T06:32:23.040Z,94.70
2019-05-06T06:32:58.448Z,94.70
2019-05-06T06:33:33.499Z,94.60
2019-05-06T06:34:16.707Z,94.50
2019-05-06T06:35:10.746Z,94.40
2019-05-06T06:35:48.809Z,94.30
2019-05-06T06:36:45.483Z,94.30
2019-05-06T06:37:36.480Z,94.30
2019-05-06T06:38:16.446Z,94.20
2019-05-06T06:38:57.790Z,94.30
2019-05-06T06:39:37.658Z,94.30
2019-05-06T06:40:13.140Z,94.20
2019-05-06T06:40:48.470Z,94.20
2019-05-06T06:41:23.891Z,94.10
2019-05-06T06:41:58.980Z,94.00
2019-05-06T06:42:34.083Z,94.00
2019-05-06T06:43:14.010Z,94.00
2019-05-06T06:43:52.478Z,93.90
2019-05-06T06:44:30.162Z,93.90
2019-05-06T06:45:05.366Z,93.90
2019-05-06T06:45:42.145Z,93.90
2019-05-06T06:46:17.739Z,93.90
2019-05-06T06:46:53.217Z,93.90
2019-05-06T06:47:28.291Z,93.90
2019-05-06T06:48:03.325Z,93.90
2019-05-06T06:48:38.402Z,93.90
2019-05-06T06:49:13.726Z,93.90
2019-05-06T06:49:48.874Z,93.90
2019-05-06T06:50:23.956Z,93.90
2019-05-06T06:50:58.996Z,93.90
2019-05-06T06:51:34.052Z,93.90
2019-05-06T06:52:11.547Z,93.90
2019-05-06T06:52:45.838Z,93.80
2019-05-06T06:53:21.890Z,94.20
2019-05-06T06:53:57.592Z,93.80
2019-05-06T06:54:32.653Z,93.80
2019-05-06T06:55:08.341Z,93.80
2019-05-06T06:55:43.549Z,93.80
2019-05-06T06:56:43.475Z,93.80
2019-05-06T06:57:31.369Z,93.80
2019-05-06T06:58:14.647Z,93.80
2019-05-06T06:59:22.193Z,93.80
2019-05-06T07:00:26.426Z,93.80
2019-05-06T07:01:25.156Z,93.70
2019-05-06T07:02:19.400Z,93.60
2019-05-06T07:03:04.770Z,93.60
2019-05-06T07:03:43.994Z,93.40
2019-05-06T07:04:25.115Z,93.40
2019-05-06T07:05:28.448Z,93.40
2019-05-06T07:06:09.293Z,93.40
2019-05-06T07:06:47.150Z,93.40
2019-05-06T07:07:24.199Z,93.40
2019-05-06T07:07:59.338Z,93.40
2019-05-06T07:08:37.588Z,93.40
2019-05-06T07:09:12.541Z,93.40
2019-05-06T07:09:47.751Z,93.30
2019-05-06T07:10:42.448Z,93.30
2019-05-06T07:11:17.267Z,93.20
2019-05-06T07:11:52.706Z,93.20
2019-05-06T07:12:29.659Z,93.20
2019-05-06T07:13:04.792Z,93.30
2019-05-06T07:13:43.258Z,93.20
2019-05-06T07:14:18.330Z,93.20
2019-05-06T07:15:02.273Z,93.20
2019-05-06T07:15:36.886Z,93.20
2019-05-06T07:16:12.341Z,93.10
2019-05-06T07:16:47.567Z,93.10
2019-05-06T07:17:22.977Z,93.00
2019-05-06T07:17:58.022Z,93.00
2019-05-06T07:18:33.266Z,92.90
2019-05-06T07:19:08.527Z,92.90
2019-05-06T07:19:49.216Z,92.90
2019-05-06T07:20:26.433Z,92.90
2019-05-06T07:21:16.004Z,92.80
2019-05-06T07:21:54.331Z,92.70
2019-05-06T07:22:36.334Z,92.70
2019-05-06T07:23:24.151Z,92.70
2019-05-06T07:24:02.153Z,92.80
2019-05-06T07:24:37.615Z,92.70
2019-05-06T07:25:12.944Z,92.70
2019-05-06T07:25:48.063Z,92.60
2019-05-06T07:26:25.721Z,92.70
2019-05-06T07:27:07.360Z,92.50
2019-05-06T07:27:42.815Z,92.50
2019-05-06T07:28:17.859Z,92.40
2019-05-06T07:28:52.956Z,92.40
2019-05-06T07:29:28.454Z,92.30
2019-05-06T07:30:04.123Z,92.20
2019-05-06T07:30:41.953Z,92.10
2019-05-06T07:31:22.382Z,92.10
2019-05-06T07:31:53.955Z,92.00
2019-05-06T07:32:29.083Z,92.00
2019-05-06T07:33:04.127Z,91.90
2019-05-06T07:33:39.362Z,91.80
2019-05-06T07:34:14.395Z,91.70
2019-05-06T07:34:49.471Z,92.00
2019-05-06T07:35:37.618Z,91.60
2019-05-06T07:36:02.163Z,91.40
2019-05-06T07:36:37.715Z,91.40
2019-05-06T07:37:12.859Z,91.40
2019-05-06T07:37:47.897Z,91.20
2019-05-06T07:38:23.406Z,91.10
2019-05-06T07:38:59.009Z,90.90
2019-05-06T07:39:34.052Z,90.80
2019-05-06T07:40:09.179Z,90.70
2019-05-06T07:40:46.423Z,90.50
2019-05-06T07:41:37.144Z,90.30
2019-05-06T07:42:16.862Z,90.10
2019-05-06T07:42:53.051Z,89.70
2019-05-06T07:43:42.137Z,89.20
2019-05-06T07:44:34.982Z,89.40
2019-05-06T07:45:38.308Z,88.30
2019-05-06T07:46:23.375Z,87.70
2019-05-06T07:47:19.663Z,88.10
2019-05-06T07:48:05.197Z,87.20
2019-05-06T07:48:42.752Z,87.10
2019-05-06T07:49:17.302Z,87.00
2019-05-06T07:49:53.141Z,87.00
2019-05-06T07:50:28.682Z,87.00
2019-05-06T07:51:04.051Z,87.00
2019-05-06T07:51:39.115Z,87.10
2019-05-06T07:52:17.035Z,87.20
2019-05-06T07:53:08.191Z,88.10
2019-05-06T07:53:43.235Z,87.50
2019-05-06T07:54:18.303Z,87.90
2019-05-06T07:54:53.505Z,88.10
2019-05-06T07:55:29.332Z,88.20
2019-05-06T07:56:04.399Z,88.10
2019-05-06T07:56:39.455Z,88.10
2019-05-06T07:57:14.508Z,88.50
2019-05-06T07:57:50.587Z,88.50
2019-05-06T07:58:27.606Z,88.60
2019-05-06T07:59:08.519Z,88.20
2019-05-06T07:59:43.623Z,88.30
2019-05-06T08:00:18.755Z,88.20
2019-05-06T08:00:54.117Z,88.30
2019-05-06T08:01:29.534Z,88.10
2019-05-06T08:02:04.660Z,87.80
2019-05-06T08:02:40.038Z,87.50
2019-05-06T08:03:15.075Z,87.40
2019-05-06T08:03:50.135Z,87.00
2019-05-06T08:04:25.423Z,86.60
2019-05-06T08:05:02.514Z,86.50
2019-05-06T08:05:37.219Z,86.20
2019-05-06T08:06:13.286Z,84.90
2019-05-06T08:06:48.878Z,84.50
2019-05-06T08:07:24.607Z,84.20
2019-05-06T08:07:59.650Z,83.70
2019-05-06T08:08:34.698Z,83.30
2019-05-06T08:09:12.727Z,82.70
2019-05-06T08:09:47.090Z,82.40
2019-05-06T08:10:22.480Z,81.90
2019-05-06T08:10:57.883Z,81.40
2019-05-06T08:11:32.971Z,80.90
2019-05-06T08:12:08.363Z,80.50
2019-05-06T08:12:43.431Z,80.00
2019-05-06T08:13:18.573Z,79.70
2019-05-06T08:13:54.856Z,79.40
2019-05-06T08:14:43.156Z,79.00
2019-05-06T08:15:18.728Z,78.60
2019-05-06T08:15:53.864Z,78.20
2019-05-06T08:16:31.923Z,77.90
2019-05-06T08:17:07.479Z,77.70
2019-05-06T08:17:42.797Z,77.50
2019-05-06T08:18:18.175Z,77.40
2019-05-06T08:18:53.547Z,77.10
2019-05-06T08:19:28.608Z,76.90
2019-05-06T08:20:04.097Z,76.60
2019-05-06T08:20:39.388Z,76.20
2019-05-06T08:21:19.510Z,76.00
2019-05-06T08:21:56.271Z,75.50
2019-05-06T08:22:49.063Z,75.20
2019-05-06T08:23:42.818Z,74.90
2019-05-06T08:24:17.936Z,74.50
2019-05-06T08:24:53.424Z,74.10
2019-05-06T08:25:37.467Z,73.90
2019-05-06T08:26:16.618Z,73.70
2019-05-06T08:26:49.463Z,73.50
2019-05-06T08:27:24.522Z,73.10
2019-05-06T08:27:59.588Z,72.80
2019-05-06T08:28:40.685Z,72.50
2019-05-06T08:29:12.574Z,71.90
2019-05-06T08:29:48.607Z,71.50
2019-05-06T08:30:24.646Z,71.00
2019-05-06T08:31:02.240Z,70.70
2019-05-06T08:31:37.163Z,70.70
2019-05-06T08:32:12.372Z,70.80
2019-05-06T08:32:47.700Z,70.70
2019-05-06T08:33:22.755Z,70.60
2019-05-06T08:33:57.798Z,70.60
2019-05-06T08:34:34.254Z,70.50
2019-05-06T08:35:10.067Z,70.30
2019-05-06T08:35:45.222Z,70.10
2019-05-06T08:36:28.254Z,69.90
2019-05-06T08:37:27.305Z,69.60
2019-05-06T08:38:02.476Z,68.70
2019-05-06T08:38:57.568Z,67.70
2019-05-06T08:39:33.683Z,67.10
2019-05-06T08:40:08.801Z,65.30
2019-05-06T08:40:43.838Z,64.30
2019-05-06T08:41:19.212Z,63.20
2019-05-06T08:41:54.964Z,62.10
2019-05-06T08:42:30.097Z,61.00
2019-05-06T08:43:13.102Z,60.10
2019-05-06T08:43:48.367Z,59.40
2019-05-06T08:44:23.847Z,58.90
2019-05-06T08:44:58.877Z,58.50
2019-05-06T08:45:34.009Z,58.20
2019-05-06T08:46:09.367Z,58.10
2019-05-06T08:46:44.431Z,57.80
2019-05-06T08:47:19.603Z,57.60
2019-05-06T08:47:54.662Z,57.20
2019-05-06T08:48:30.008Z,56.70
2019-05-06T08:49:05.063Z,56.30
2019-05-06T08:50:05.159Z,56.00
2019-05-06T08:50:52.907Z,55.70
2019-05-06T08:52:03.829Z,55.60
2019-05-06T08:53:00.439Z,56.10
2019-05-06T08:53:39.005Z,55.80
2019-05-06T08:54:22.551Z,56.00
2019-05-06T08:54:58.407Z,56.30
2019-05-06T08:55:36.010Z,56.50
2019-05-06T08:56:16.378Z,56.60
2019-05-06T08:56:52.316Z,56.80
2019-05-06T08:57:27.718Z,56.70
2019-05-06T08:58:03.032Z,56.50
2019-05-06T08:58:46.237Z,56.40
2019-05-06T08:59:23.836Z,56.20
2019-05-06T08:59:58.363Z,55.90
2019-05-06T09:00:35.292Z,55.70
2019-05-06T09:01:12.508Z,55.30
2019-05-06T09:01:49.498Z,55.00
2019-05-06T09:02:24.527Z,54.80
2019-05-06T09:02:59.604Z,54.60
2019-05-06T09:03:34.663Z,54.50
2019-05-06T09:04:15.256Z,54.40
2019-05-06T09:04:46.491Z,54.50
2019-05-06T09:05:22.305Z,54.50
2019-05-06T09:05:57.470Z,54.60
2019-05-06T09:06:34.342Z,55.40
2019-05-06T09:07:09.506Z,54.80
2019-05-06T09:07:46.186Z,55.00
2019-05-06T09:08:23.254Z,55.00
2019-05-06T09:08:58.381Z,55.20
2019-05-06T09:09:33.403Z,55.30
2019-05-06T09:10:08.465Z,55.50
2019-05-06T09:10:43.583Z,55.80
2019-05-06T09:11:18.625Z,55.90
2019-05-06T09:11:53.773Z,56.20
2019-05-06T09:12:28.960Z,56.40
2019-05-06T09:13:04.128Z,56.60
2019-05-06T09:13:39.200Z,56.60
2019-05-06T09:14:14.367Z,56.80
2019-05-06T09:14:49.434Z,57.10
2019-05-06T09:15:24.454Z,57.40
2019-05-06T09:15:59.520Z,57.50
2019-05-06T09:16:34.580Z,58.00
2019-05-06T09:17:11.911Z,58.30
2019-05-06T09:17:46.416Z,58.60
2019-05-06T09:18:23.876Z,58.90
2019-05-06T09:18:58.245Z,59.20
2019-05-06T09:19:33.396Z,59.30
2019-05-06T09:20:08.531Z,59.70
2019-05-06T09:20:44.270Z,59.90
2019-05-06T09:21:19.308Z,60.00
2019-05-06T09:21:54.351Z,60.20
2019-05-06T09:22:29.402Z,60.30
2019-05-06T09:23:04.864Z,60.30
2019-05-06T09:23:42.212Z,60.30
2019-05-06T09:24:17.163Z,60.40
2019-05-06T09:24:53.100Z,60.60
2019-05-06T09:25:28.310Z,60.70
2019-05-06T09:26:05.023Z,61.60
2019-05-06T09:26:44.454Z,60.70
2019-05-06T09:27:42.195Z,60.80
2019-05-06T09:28:42.795Z,60.80
2019-05-06T09:29:23.168Z,60.80
2019-05-06T09:30:08.635Z,61.00
2019-05-06T09:30:53.175Z,61.20
2019-05-06T09:31:33.626Z,61.30
2019-05-06T09:32:13.912Z,61.50
2019-05-06T09:32:49.186Z,61.50
2019-05-06T09:33:29.732Z,61.50
2019-05-06T09:34:13.055Z,61.40
2019-05-06T09:34:52.765Z,61.40
2019-05-06T09:35:27.435Z,61.50
2019-05-06T09:36:03.298Z,61.20
2019-05-06T09:36:43.685Z,61.00
2019-05-06T09:37:17.448Z,60.60
2019-05-06T09:37:53.465Z,60.10
2019-05-06T09:38:32.170Z,60.00
2019-05-06T09:39:07.988Z,59.80
2019-05-06T09:39:44.139Z,59.70
2019-05-06T09:40:19.247Z,59.60
2019-05-06T09:40:54.347Z,59.40
2019-05-06T09:41:32.336Z,59.40
2019-05-06T09:42:06.658Z,59.40
2019-05-06T09:42:42.542Z,59.40
2019-05-06T09:43:17.845Z,59.40
2019-05-06T09:43:53.160Z,59.20
2019-05-06T09:44:28.210Z,59.20
2019-05-06T09:45:03.247Z,59.20
2019-05-06T09:45:38.379Z,59.40
2019-05-06T09:46:13.755Z,59.30
2019-05-06T09:46:48.808Z,59.60
2019-05-06T09:47:42.566Z,59.90
2019-05-06T09:48:33.197Z,60.20
2019-05-06T09:49:16.088Z,60.60
2019-05-06T09:49:53.079Z,61.10
2019-05-06T09:50:36.682Z,61.50
2019-05-06T09:51:13.081Z,61.80
2019-05-06T09:51:49.263Z,62.30
2019-05-06T09:52:24.647Z,63.50
2019-05-06T09:53:01.919Z,62.90
2019-05-06T09:53:55.523Z,63.20
2019-05-06T09:54:44.208Z,63.30
2019-05-06T09:55:43.133Z,63.70
2019-05-06T09:56:25.918Z,64.00
2019-05-06T09:57:08.447Z,64.30
2019-05-06T09:58:03.209Z,64.10
2019-05-06T09:58:42.860Z,64.10
2019-05-06T09:59:17.259Z,64.10
2019-05-06T09:59:53.387Z,64.50
2019-05-06T10:00:29.461Z,64.80
2019-05-06T10:01:04.587Z,65.00
2019-05-06T10:01:39.740Z,65.10
2019-05-06T10:02:14.797Z,64.80
2019-05-06T10:02:52.570Z,64.90
2019-05-06T10:03:26.906Z,65.10
2019-05-06T10:04:06.916Z,65.40
2019-05-06T10:04:42.834Z,65.50
2019-05-06T10:05:18.139Z,66.00
2019-05-06T10:05:53.259Z,66.10
2019-05-06T10:06:28.340Z,66.30
2019-05-06T10:07:03.483Z,66.40
2019-05-06T10:07:38.519Z,66.50
2019-05-06T10:08:13.726Z,67.20
2019-05-06T10:08:48.762Z,66.70
2019-05-06T10:09:24.975Z,66.60
2019-05-06T10:10:00.179Z,66.80
2019-05-06T10:10:35.551Z,66.70
2019-05-06T10:11:10.635Z,66.60
2019-05-06T10:11:45.949Z,66.40
2019-05-06T10:12:21.010Z,66.20
2019-05-06T10:12:56.879Z,66.00
2019-05-06T10:13:32.772Z,65.90
2019-05-06T10:14:09.087Z,65.70
2019-05-06T10:14:44.177Z,65.60
2019-05-06T10:15:19.305Z,65.70
2019-05-06T10:15:57.389Z,65.60
2019-05-06T10:16:32.501Z,65.60
2019-05-06T10:17:07.729Z,66.30
2019-05-06T10:17:42.943Z,65.60
2019-05-06T10:18:18.165Z,65.40
2019-05-06T10:18:53.206Z,65.40
2019-05-06T10:19:29.624Z,65.30
2019-05-06T10:20:05.279Z,65.20
2019-05-06T10:20:43.342Z,65.10
2019-05-06T10:21:18.983Z,65.00
2019-05-06T10:21:54.048Z,64.80
2019-05-06T10:22:29.095Z,64.60
2019-05-06T10:23:05.343Z,64.40
2019-05-06T10:23:42.344Z,64.10
2019-05-06T10:24:17.192Z,64.00
2019-05-06T10:24:52.376Z,63.40
2019-05-06T10:25:27.606Z,62.80
2019-05-06T10:26:04.549Z,62.30
2019-05-06T10:26:44.642Z,61.90
2019-05-06T10:27:19.804Z,61.40
2019-05-06T10:27:57.325Z,61.10
2019-05-06T10:28:40.475Z,60.80
2019-05-06T10:29:22.393Z,60.60
2019-05-06T10:30:03.955Z,60.50
2019-05-06T10:30:40.678Z,60.40
2019-05-06T10:31:16.955Z,60.30
2019-05-06T10:32:01.991Z,60.30
2019-05-06T10:32:56.268Z,60.30
2019-05-06T10:33:32.511Z,60.50
2019-05-06T10:34:13.919Z,60.50
2019-05-06T10:34:48.613Z,60.50
2019-05-06T10:35:26.827Z,60.50
2019-05-06T10:36:04.375Z,60.50
2019-05-06T10:36:48.635Z,60.40
2019-05-06T10:37:44.308Z,60.40
2019-05-06T10:38:43.251Z,60.50
2019-05-06T10:39:18.846Z,60.50
2019-05-06T10:40:03.202Z,61.00
2019-05-06T10:40:56.061Z,61.20
2019-05-06T10:41:18.902Z,61.40
2019-05-06T10:42:13.065Z,61.60
2019-05-06T10:42:54.510Z,62.00
2019-05-06T10:43:52.597Z,62.40
2019-05-06T10:44:42.852Z,62.80
2019-05-06T10:45:27.936Z,63.40
2019-05-06T10:46:04.182Z,63.90
2019-05-06T10:46:39.440Z,64.60
2019-05-06T10:47:15.082Z,64.80
2019-05-06T10:47:50.139Z,65.10
2019-05-06T10:48:25.198Z,65.50
2019-05-06T10:49:02.447Z,65.80
2019-05-06T10:49:37.390Z,66.30
2019-05-06T10:50:12.751Z,66.80
2019-05-06T10:50:52.169Z,67.10
2019-05-06T10:51:34.802Z,67.30
2019-05-06T10:52:14.936Z,67.70
2019-05-06T10:53:07.717Z,68.10
2019-05-06T10:53:43.023Z,68.40
2019-05-06T10:54:18.075Z,68.80
2019-05-06T10:54:53.147Z,69.10
2019-05-06T10:55:28.219Z,69.30
2019-05-06T10:56:23.083Z,69.50
2019-05-06T10:57:12.527Z,69.70
2019-05-06T10:57:47.878Z,69.90
2019-05-06T10:58:23.283Z,69.90
2019-05-06T10:58:58.346Z,70.00
2019-05-06T10:59:33.703Z,70.10
2019-05-06T11:00:12.114Z,69.90
2019-05-06T11:00:47.646Z,69.90
2019-05-06T11:01:28.313Z,69.80
2019-05-06T11:02:23.261Z,69.60
2019-05-06T11:03:14.734Z,69.50
2019-05-06T11:03:48.502Z,69.40
2019-05-06T11:04:23.552Z,69.20
2019-05-06T11:04:58.931Z,69.10
2019-05-06T11:05:33.983Z,69.00
2019-05-06T11:06:09.014Z,68.90
2019-05-06T11:06:44.093Z,68.80
2019-05-06T11:07:29.346Z,68.60
2019-05-06T11:07:56.283Z,68.50
2019-05-06T11:08:32.623Z,68.50
2019-05-06T11:09:08.495Z,68.30
2019-05-06T11:09:43.655Z,68.10
2019-05-06T11:10:26.924Z,68.00
2019-05-06T11:10:56.033Z,67.90
2019-05-06T11:11:37.919Z,67.50
2019-05-06T11:12:08.091Z,67.40
2019-05-06T11:12:43.233Z,67.40
2019-05-06T11:13:18.384Z,67.20
2019-05-06T11:13:53.452Z,67.30
2019-05-06T11:14:29.489Z,67.20
2019-05-06T11:15:04.924Z,67.30
2019-05-06T11:15:39.975Z,67.40
2019-05-06T11:16:16.948Z,67.40
2019-05-06T11:16:52.207Z,67.30
2019-05-06T11:17:29.518Z,67.30
2019-05-06T11:18:04.968Z,68.10
2019-05-06T11:18:42.407Z,67.00
2019-05-06T11:19:16.974Z,67.00
2019-05-06T11:19:53.333Z,66.80
2019-05-06T11:20:28.479Z,66.70
2019-05-06T11:21:03.847Z,66.70
2019-05-06T11:21:38.896Z,67.40
2019-05-06T11:22:13.951Z,66.60
2019-05-06T11:22:49.039Z,66.40
2019-05-06T11:23:26.190Z,66.40
2019-05-06T11:24:01.271Z,66.30
2019-05-06T11:24:36.355Z,66.30
2019-05-06T11:25:12.333Z,66.60
2019-05-06T11:25:47.463Z,66.20
2019-05-06T11:26:23.708Z,66.30
2019-05-06T11:26:58.948Z,66.40
2019-05-06T11:27:37.545Z,66.50
2019-05-06T11:28:28.528Z,66.70
2019-05-06T11:29:08.314Z,66.80
2019-05-06T11:29:44.291Z,67.00
2019-05-06T11:30:42.521Z,67.30
2019-05-06T11:31:25.483Z,67.30
2019-05-06T11:32:23.723Z,67.70
2019-05-06T11:33:04.715Z,68.00
2019-05-06T11:33:48.316Z,68.60
2019-05-06T11:34:45.333Z,69.00
2019-05-06T11:35:32.860Z,70.30
2019-05-06T11:36:32.342Z,71.70
2019-05-06T11:37:50.186Z,73.20
2019-05-06T11:38:22.817Z,75.00
2019-05-06T11:38:57.990Z,77.10
2019-05-06T11:39:33.542Z,78.00
2019-05-06T11:40:08.854Z,79.60
2019-05-06T11:40:45.938Z,80.40
2019-05-06T11:41:23.327Z,81.40
2019-05-06T11:42:15.299Z,82.50
2019-05-06T11:42:35.951Z,83.50
2019-05-06T11:43:11.958Z,84.30
2019-05-06T11:43:47.847Z,85.00
2019-05-06T11:44:23.927Z,85.60
2019-05-06T11:44:59.251Z,86.10
2019-05-06T11:45:34.282Z,86.90
2019-05-06T11:46:09.355Z,87.40
2019-05-06T11:46:44.407Z,88.00
2019-05-06T11:47:23.076Z,88.60
2019-05-06T11:47:57.342Z,88.70
2019-05-06T11:48:32.936Z,89.50
2019-05-06T11:49:08.132Z,90.00
2019-05-06T11:49:44.102Z,90.10
2019-05-06T11:50:19.366Z,90.30
2019-05-06T11:50:57.630Z,90.60
2019-05-06T11:51:33.087Z,90.70
2019-05-06T11:52:08.294Z,90.90
2019-05-06T11:52:43.720Z,90.90
2019-05-06T11:53:18.778Z,91.00
2019-05-06T11:53:54.141Z,91.10
2019-05-06T11:54:29.687Z,91.20
2019-05-06T11:55:05.747Z,91.30
2019-05-06T11:55:40.808Z,91.20
2019-05-06T11:56:16.141Z,91.30
2019-05-06T11:56:56.186Z,91.50
2019-05-06T11:57:28.031Z,91.40
2019-05-06T11:58:03.368Z,91.30
2019-05-06T11:58:48.086Z,91.20
2019-05-06T11:59:24.167Z,91.20
2019-05-06T11:59:59.222Z,91.10
2019-05-06T12:00:38.883Z,91.10
2019-05-06T12:01:20.781Z,91.10
2019-05-06T12:02:02.530Z,90.90
2019-05-06T12:02:37.936Z,91.00
2019-05-06T12:03:13.016Z,90.80
2019-05-06T12:03:49.129Z,90.80
2019-05-06T12:04:24.519Z,90.70
2019-05-06T12:04:59.602Z,90.60
2019-05-06T12:05:34.647Z,90.50
2019-05-06T12:06:09.743Z,90.30
2019-05-06T12:06:44.808Z,90.30
2019-05-06T12:07:19.893Z,90.20
2019-05-06T12:08:04.524Z,90.20
2019-05-06T12:08:32.662Z,90.20
2019-05-06T12:09:13.038Z,90.10
2019-05-06T12:09:46.180Z,90.00
2019-05-06T12:10:22.481Z,90.10
2019-05-06T12:10:57.861Z,90.00
2019-05-06T12:11:33.023Z,89.80
2019-05-06T12:12:08.095Z,89.80
2019-05-06T12:12:43.190Z,89.40
2019-05-06T12:13:18.343Z,89.10
2019-05-06T12:13:53.704Z,88.70
2019-05-06T12:14:28.743Z,88.10
2019-05-06T12:15:07.101Z,87.30
2019-05-06T12:15:42.013Z,87.00
2019-05-06T12:16:17.309Z,86.60
2019-05-06T12:16:55.098Z,86.50
2019-05-06T12:17:29.134Z,86.50
2019-05-06T12:18:04.248Z,86.30
2019-05-06T12:18:42.094Z,86.10
2019-05-06T12:19:23.540Z,85.80
2019-05-06T12:19:58.934Z,85.70
2019-05-06T12:20:34.060Z,85.40
2019-05-06T12:21:14.604Z,85.00
2019-05-06T12:21:47.998Z,84.70
2019-05-06T12:22:26.833Z,84.40
2019-05-06T12:23:04.425Z,84.00
2019-05-06T12:23:39.229Z,83.50
2019-05-06T12:24:14.362Z,83.00
2019-05-06T12:24:52.342Z,82.70
2019-05-06T12:25:27.053Z,82.30
2019-05-06T12:26:02.613Z,81.70
2019-05-06T12:26:42.809Z,81.30
2019-05-06T12:27:36.669Z,80.60
2019-05-06T12:28:12.381Z,80.00
2019-05-06T12:28:48.850Z,79.10
2019-05-06T12:29:23.928Z,78.30
2019-05-06T12:29:58.980Z,77.30
2019-05-06T12:30:34.362Z,76.40
2019-05-06T12:31:09.387Z,75.60
2019-05-06T12:31:46.693Z,74.70
2019-05-06T12:32:33.009Z,74.30
2019-05-06T12:33:33.085Z,73.90
2019-05-06T12:34:11.437Z,73.50
2019-05-06T12:34:45.517Z,72.70
2019-05-06T12:35:20.607Z,71.90
2019-05-06T12:35:56.278Z,71.50
2019-05-06T12:36:32.541Z,71.30
2019-05-06T12:37:11.681Z,71.10
2019-05-06T12:37:48.021Z,71.00
2019-05-06T12:38:30.978Z,70.70
2019-05-06T12:39:27.495Z,70.70
2019-05-06T12:40:03.431Z,70.70
2019-05-06T12:40:38.820Z,70.60
2019-05-06T12:41:14.151Z,70.30
2019-05-06T12:42:14.350Z,70.00
2019-05-06T12:42:53.600Z,69.50
2019-05-06T12:43:47.682Z,69.20
2019-05-06T12:44:25.726Z,68.60
2019-05-06T12:45:07.641Z,67.80
2019-05-06T12:45:44.872Z,67.20
2019-05-06T12:46:24.052Z,66.60
2019-05-06T12:47:09.250Z,66.30
2019-05-06T12:47:49.302Z,65.80
2019-05-06T12:48:27.184Z,65.30
2019-05-06T12:49:03.129Z,64.80
2019-05-06T12:49:39.455Z,64.30
2019-05-06T12:50:14.746Z,63.30
2019-05-06T12:50:52.338Z,62.50
2019-05-06T12:51:26.529Z,61.80
2019-05-06T12:52:01.649Z,61.30
2019-05-06T12:52:36.696Z,60.40
2019-05-06T12:53:13.265Z,59.80
2019-05-06T12:53:49.527Z,59.30
2019-05-06T12:54:24.799Z,59.30
2019-05-06T12:55:16.394Z,59.10
2019-05-06T12:55:37.263Z,58.60
2019-05-06T12:56:12.500Z,58.40
2019-05-06T12:56:48.611Z,58.10
2019-05-06T12:57:25.207Z,57.80
2019-05-06T12:58:00.339Z,57.60
2019-05-06T12:58:35.639Z,57.30
2019-05-06T12:59:12.739Z,56.80
2019-05-06T12:59:48.048Z,56.30
2019-05-06T13:00:23.739Z,55.90
2019-05-06T13:00:59.037Z,55.60
2019-05-06T13:01:34.395Z,55.20
2019-05-06T13:02:12.948Z,54.70
2019-05-06T13:02:47.392Z,54.30
2019-05-06T13:03:23.477Z,53.80
2019-05-06T13:03:58.687Z,54.00
2019-05-06T13:04:50.253Z,53.30
2019-05-06T13:05:12.644Z,51.40
2019-05-06T13:05:47.491Z,50.40
2019-05-06T13:06:26.267Z,49.70
2019-05-06T13:06:59.291Z,49.20
2019-05-06T13:07:42.034Z,48.60
2019-05-06T13:08:20.060Z,48.90
2019-05-06T13:09:01.376Z,48.10
2019-05-06T13:09:33.127Z,48.10
2019-05-06T13:10:08.468Z,48.30
2019-05-06T13:10:43.610Z,48.30
2019-05-06T13:11:18.931Z,48.40
2019-05-06T13:11:53.986Z,48.70
2019-05-06T13:12:30.384Z,49.00
2019-05-06T13:13:05.415Z,49.00
2019-05-06T13:13:55.627Z,49.00
2019-05-06T13:14:18.238Z,48.90
2019-05-06T13:14:53.270Z,48.70
2019-05-06T13:15:28.375Z,48.60
2019-05-06T13:16:03.793Z,47.80
2019-05-06T13:16:39.159Z,47.10
2019-05-06T13:17:15.874Z,46.60
2019-05-06T13:17:53.010Z,46.30
2019-05-06T13:18:28.247Z,45.80
2019-05-06T13:19:03.667Z,45.10
2019-05-06T13:19:39.206Z,45.00
2019-05-06T13:20:14.955Z,43.90
2019-05-06T13:20:51.993Z,43.40
2019-05-06T13:21:26.983Z,42.70
2019-05-06T13:22:03.577Z,41.50
2019-05-06T13:22:43.355Z,41.10
2019-05-06T13:23:35.804Z,40.80
2019-05-06T13:24:12.104Z,40.30
2019-05-06T13:24:52.032Z,39.70
2019-05-06T13:25:27.247Z,39.50
2019-05-06T13:26:02.293Z,39.70
2019-05-06T13:26:37.519Z,39.50
2019-05-06T13:27:14.238Z,39.70
2019-05-06T13:27:49.446Z,39.80
2019-05-06T13:28:25.955Z,39.90
2019-05-06T13:29:05.266Z,40.00
2019-05-06T13:29:42.742Z,40.00
2019-05-06T13:30:17.389Z,40.00
2019-05-06T13:30:53.149Z,40.10
2019-05-06T13:31:28.444Z,40.00
2019-05-06T13:32:03.465Z,40.00
2019-05-06T13:32:42.582Z,39.80
2019-05-06T13:33:43.373Z,39.90
2019-05-06T13:34:19.986Z,40.00
2019-05-06T13:34:55.207Z,40.50
2019-05-06T13:35:32.578Z,40.70
2019-05-06T13:36:07.016Z,40.90
2019-05-06T13:36:43.022Z,41.30
2019-05-06T13:37:18.202Z,41.80
2019-05-06T13:37:53.414Z,42.00
2019-05-06T13:38:31.974Z,42.40
2019-05-06T13:39:13.841Z,42.80
2019-05-06T13:39:43.862Z,43.10
2019-05-06T13:40:20.069Z,43.50
2019-05-06T13:40:57.618Z,43.40
2019-05-06T13:41:32.748Z,43.50
2019-05-06T13:42:08.345Z,43.80
2019-05-06T13:43:00.842Z,43.90
2019-05-06T13:43:39.802Z,44.10
2019-05-06T13:44:19.733Z,44.50
2019-05-06T13:44:55.188Z,44.80
2019-05-06T13:45:33.317Z,45.00
2019-05-06T13:46:16.759Z,45.10
2019-05-06T13:46:53.648Z,45.40
2019-05-06T13:48:00.380Z,45.70